Terminal Aerodrome Forecast
Issued by NWS

Home | Current Version | Previous Version | Text Only | Print | Product List | Glossary On
Versions: 1 2 3 4 5 6 7 8 9 10 11 12
000
FTUS42 TJSJ 222300 RRA
TAFJBQ
TAF
TJBQ 222342Z 2300/2324 11010KT P6SM FEW025 SCT060
     FM231430 08015G25KT P6SM FEW030 SCT050
     FM232230 11010KT P6SM FEW025=

USA.gov is the U.S. government's official web portal to all federal, state and local government web resources and services.